Time;durP1;ratioP1;P1;durP2;ratioP2;P2;SDS_P1;SDS_P2;PMS_P1;PMS_P2;Temp;Humidity;BMP_temperature;BMP_pressure;BME280_temperature;BME280_humidity;BME280_pressure;Samples;Min_cycle;Max_cycle;Signal;HPM_P1;HPM_P2
2023/02/19 00:01:09;;;;;;;;;3.00;3.00;;;;;13.10;100.00;102310.84;5023248;28;45374;-75
2023/02/19 00:03:36;;;;;;;;;2.00;2.00;;;;;13.08;100.00;102307.25;5044187;28;45483;-76
2023/02/19 00:06:03;;;;;;;;;5.00;4.67;;;;;13.15;100.00;102319.81;5036528;28;45339;-76
2023/02/19 00:08:30;;;;;;;;;5.33;2.67;;;;;13.11;100.00;102316.19;5046445;28;46597;-76
2023/02/19 00:11:04;;;;;;;;;4.67;4.00;;;;;13.13;100.00;102312.69;5018838;28;46174;-76
2023/02/19 00:13:30;;;;;;;;;4.00;4.00;;;;;13.13;100.00;102316.22;5036544;28;45526;-75
2023/02/19 00:15:55;;;;;;;;;5.67;5.00;;;;;13.12;100.00;102314.44;5051238;28;45540;-76
2023/02/19 00:18:22;;;;;;;;;6.33;4.33;;;;;13.16;100.00;102318.06;5053006;28;46014;-75
2023/02/19 00:20:48;;;;;;;;;4.00;4.00;;;;;13.14;100.00;102311.81;5017726;28;45509;-76
2023/02/19 00:23:13;;;;;;;;;6.00;4.00;;;;;13.18;100.00;102319.00;5049547;28;56010;-76
2023/02/19 00:25:38;;;;;;;;;6.67;5.67;;;;;13.16;100.00;102318.06;5033237;28;45457;-76
2023/02/19 00:28:04;;;;;;;;;4.67;4.33;;;;;13.17;100.00;102319.88;5035952;28;62346;-76
2023/02/19 00:30:29;;;;;;;;;5.67;5.00;;;;;13.16;100.00;102302.16;5029653;28;58241;-76
2023/02/19 00:32:55;;;;;;;;;4.00;4.00;;;;;13.17;100.00;102322.50;5049774;28;45825;-77
2023/02/19 00:35:20;;;;;;;;;7.67;6.00;;;;;13.15;100.00;102306.53;5023497;28;45464;-76
2023/02/19 00:37:46;;;;;;;;;2.00;2.00;;;;;13.18;100.00;102303.09;5033541;28;45949;-75
2023/02/19 00:40:11;;;;;;;;;5.33;5.33;;;;;13.17;100.00;102304.84;5050050;28;58074;-75
2023/02/19 00:42:36;;;;;;;;;8.33;6.00;;;;;13.17;100.00;102306.59;5026037;28;46213;-75
2023/02/19 00:45:02;;;;;;;;;8.33;6.33;;;;;13.17;100.00;102296.00;5053330;28;47583;-76
2023/02/19 00:47:27;;;;;;;;;4.33;4.33;;;;;13.15;100.00;102297.69;5050668;28;45853;-75
2023/02/19 00:49:53;;;;;;;;;4.00;4.00;;;;;13.14;100.00;102288.84;5056025;28;55585;-76
2023/02/19 00:52:18;;;;;;;;;4.33;4.33;;;;;13.14;100.00;102298.56;5056123;28;46008;-75
2023/02/19 00:54:43;;;;;;;;;6.67;5.67;;;;;13.08;100.00;102284.28;5030151;28;46315;-76
2023/02/19 00:57:09;;;;;;;;;4.33;4.00;;;;;13.06;100.00;102283.38;5048810;28;60687;-76
2023/02/19 00:59:35;;;;;;;;;7.67;4.67;;;;;13.04;100.00;102271.81;5051140;28;58617;-76
2023/02/19 01:02:01;;;;;;;;;6.33;3.00;;;;;13.00;100.00;102272.63;5051341;28;45472;-75
2023/02/19 01:04:26;;;;;;;;;8.00;6.00;;;;;12.93;100.00;102278.63;5029674;28;45345;-76
2023/02/19 01:06:51;;;;;;;;;7.33;5.33;;;;;12.90;100.00;102280.31;5036301;28;45237;-76
2023/02/19 01:09:17;;;;;;;;;5.00;5.00;;;;;12.82;100.00;102265.09;5055956;28;52214;-76
2023/02/19 01:11:42;;;;;;;;;6.33;4.00;;;;;12.83;100.00;102273.94;5025371;28;45503;-76
2023/02/19 01:14:08;;;;;;;;;4.00;4.00;;;;;12.82;100.00;102282.75;5057040;28;50160;-75
2023/02/19 01:16:34;;;;;;;;;9.67;5.00;;;;;12.82;100.00;102282.75;5037538;28;48238;-75
2023/02/19 01:18:59;;;;;;;;;3.33;3.00;;;;;12.86;100.00;102287.28;5056837;28;45667;-76
2023/02/19 01:21:26;;;;;;;;;3.33;3.00;;;;;12.89;100.00;102284.72;5034253;28;45413;-75
2023/02/19 01:23:52;;;;;;;;;7.67;6.00;;;;;12.91;100.00;102279.44;5055503;28;45290;-75
2023/02/19 01:26:20;;;;;;;;;6.00;4.67;;;;;12.83;100.00;102263.34;5029311;28;46489;-75
2023/02/19 01:28:47;;;;;;;;;7.67;5.00;;;;;12.88;100.00;102279.34;5034917;28;46237;-76
2023/02/19 01:31:17;;;;;;;;;4.67;4.00;;;;;12.86;100.00;102279.34;5050425;28;45458;-76
2023/02/19 01:33:47;;;;;;;;;6.00;4.00;;;;;12.84;100.00;102278.41;5052993;28;45538;-75
2023/02/19 01:36:13;;;;;;;;;8.00;4.00;;;;;12.83;100.00;102280.13;5050675;28;45744;-75
2023/02/19 01:38:38;;;;;;;;;6.00;4.67;;;;;12.81;100.00;102283.63;5045788;28;45473;-76
2023/02/19 01:41:05;;;;;;;;;5.00;5.00;;;;;12.85;100.00;102301.41;5052623;28;55901;-76
2023/02/19 01:43:52;;;;;;;;;6.67;5.00;;;;;12.89;100.00;102294.41;5055351;28;45443;-76
2023/02/19 01:46:17;;;;;;;;;6.00;4.00;;;;;12.89;100.00;102284.72;5036372;28;45541;-75
2023/02/19 01:48:42;;;;;;;;;9.67;5.67;;;;;12.91;100.00;102298.00;5056549;28;50489;-75
2023/02/19 01:51:12;;;;;;;;;4.00;4.00;;;;;12.88;100.00;102295.25;5055290;28;51600;-76
2023/02/19 01:53:40;;;;;;;;;6.00;4.33;;;;;12.91;100.00;102290.94;5035075;28;45362;-75
2023/02/19 01:56:07;;;;;;;;;5.00;5.00;;;;;12.91;100.00;102288.28;5050343;28;45389;-76
2023/02/19 01:58:34;;;;;;;;;7.00;3.00;;;;;12.94;100.00;102290.09;5034473;28;45570;-75
2023/02/19 02:01:01;;;;;;;;;3.00;3.00;;;;;12.97;100.00;102299.03;5032395;28;45505;-76
2023/02/19 02:03:27;;;;;;;;;7.00;4.00;;;;;12.97;100.00;102291.09;5023287;28;45526;-76
2023/02/19 02:06:01;;;;;;;;;5.33;3.00;;;;;12.97;100.00;102288.44;5027326;28;57294;-75
2023/02/19 02:11:11;;;;;;;;;3.00;3.00;;;;;13.02;100.00;102296.50;5041977;28;45546;-77
2023/02/19 02:13:38;;;;;;;;;4.00;3.00;;;;;13.06;100.00;102285.13;5052408;28;45514;-76
2023/02/19 02:16:12;;;;;;;;;3.00;3.00;;;;;13.09;100.00;102295.78;5037212;28;46572;-76
2023/02/19 02:19:01;;;;;;;;;3.00;3.00;;;;;13.09;100.00;102293.13;5056082;28;45471;-77
2023/02/19 02:21:35;;;;;;;;;5.00;4.00;;;;;13.07;100.00;102295.75;5029783;28;45417;-75
2023/02/19 02:24:30;;;;;;;;;2.00;2.00;;;;;13.11;100.00;102299.41;5041991;28;45588;-76
2023/02/19 02:27:23;;;;;;;;;5.33;2.33;;;;;13.14;100.00;102301.22;5019014;28;47766;-76
2023/02/19 02:30:07;;;;;;;;;5.00;3.00;;;;;13.16;100.00;102304.81;5030182;28;45422;-76
2023/02/19 02:32:39;;;;;;;;;4.33;4.33;;;;;13.13;100.00;102300.31;5045797;28;45454;-76
2023/02/19 02:35:08;;;;;;;;;5.00;3.67;;;;;13.13;100.00;102297.66;5034435;28;45323;-76
2023/02/19 02:37:36;;;;;;;;;2.00;2.00;;;;;13.13;100.00;102296.78;5032851;28;46879;-76
2023/02/19 02:40:04;;;;;;;;;3.00;2.00;;;;;13.14;100.00;102302.09;5025930;28;45667;-75
2023/02/19 02:42:32;;;;;;;;;2.00;2.00;;;;;13.17;100.00;102296.88;5036971;28;45509;-76
2023/02/19 02:48:33;;;;;;;;;1.00;1.00;;;;;13.23;100.00;102304.13;5020557;28;46624;-75
2023/02/19 02:50:58;;;;;;;;;2.00;2.00;;;;;13.23;100.00;102305.03;5045287;28;45497;-76
2023/02/19 02:56:28;;;;;;;;;1.00;1.00;;;;;13.27;100.00;102296.28;5035566;28;45529;-77
2023/02/19 02:58:55;;;;;;;;;1.33;1.00;;;;;13.29;100.00;102306.91;5029419;28;46101;-77
2023/02/19 03:04:33;;;;;;;;;3.00;1.00;;;;;13.29;100.00;102306.91;5028876;28;45435;-76
2023/02/19 03:07:04;;;;;;;;;2.00;1.00;;;;;13.26;100.00;102301.53;5047333;28;45989;-75
2023/02/19 03:09:39;;;;;;;;;1.67;1.67;;;;;13.27;100.00;102309.53;5034967;28;47580;-75
2023/02/19 03:20:39;;;;;;;;;1.00;1.00;;;;;13.24;100.00;102305.91;5037528;28;45773;-76
2023/02/19 03:23:06;;;;;;;;;0.00;0.00;;;;;13.25;100.00;102310.34;5029642;28;45576;-76
2023/02/19 03:29:21;;;;;;;;;0.00;0.00;;;;;13.17;100.00;102312.81;5034301;28;45512;-76
2023/02/19 03:31:09;;;;;;;;;2.00;0.33;;;;;13.12;100.00;102303.84;5026933;28;45544;-75
2023/02/19 03:33:35;;;;;;;;;0.33;0.00;;;;;13.10;100.00;102309.09;5032652;28;45561;-77
2023/02/19 03:36:04;;;;;;;;;0.00;0.00;;;;;13.13;100.00;102307.38;5043220;28;55214;-75
2023/02/19 03:38:39;;;;;;;;;0.00;0.00;;;;;13.11;100.00;102308.25;5028409;28;45717;-76
2023/02/19 03:41:30;;;;;;;;;1.00;0.00;;;;;13.12;100.00;102306.50;5028269;28;46815;-77
2023/02/19 03:43:58;;;;;;;;;1.00;0.00;;;;;13.13;100.00;102305.63;5040963;28;45512;-76
2023/02/19 03:46:46;;;;;;;;;2.00;0.00;;;;;13.15;100.00;102303.00;5028180;28;45571;-75
2023/02/19 03:49:20;;;;;;;;;0.00;0.00;;;;;13.15;100.00;102310.94;5027510;28;45499;-75
2023/02/19 03:51:50;;;;;;;;;1.00;1.00;;;;;13.10;100.00;102301.16;5018014;28;45596;-75
2023/02/19 03:54:17;;;;;;;;;1.33;0.00;;;;;13.12;100.00;102314.44;5033832;28;45443;-75
2023/02/19 03:56:58;;;;;;;;;0.00;0.00;;;;;13.14;100.00;102311.81;5033036;28;45466;-75
2023/02/19 03:59:47;;;;;;;;;0.67;0.00;;;;;13.13;100.00;102305.63;5030016;28;45357;-75
2023/02/19 04:02:18;;;;;;;;;1.00;0.00;;;;;13.16;100.00;102307.47;5042223;28;46606;-76
2023/02/19 04:04:49;;;;;;;;;0.33;0.00;;;;;13.14;100.00;102309.16;5047358;28;45601;-77
2023/02/19 04:07:15;;;;;;;;;0.00;0.00;;;;;13.13;100.00;102307.38;5020828;28;45473;-76
2023/02/19 04:09:45;;;;;;;;;0.00;0.00;;;;;13.14;100.00;102311.81;5033149;28;50436;-77
2023/02/19 04:12:12;;;;;;;;;0.00;0.00;;;;;13.11;100.00;102316.19;5019874;28;47775;-76
2023/02/19 04:14:59;;;;;;;;;0.00;0.00;;;;;13.11;100.00;102316.19;5053564;28;47545;-76
2023/02/19 04:17:33;;;;;;;;;0.00;0.00;;;;;13.11;100.00;102324.16;5016875;28;45407;-76
2023/02/19 04:20:02;;;;;;;;;0.00;0.00;;;;;13.10;100.00;102321.44;5023425;28;45636;-76
2023/02/19 04:22:28;;;;;;;;;0.00;0.00;;;;;13.09;100.00;102325.84;5017995;28;48583;-76
2023/02/19 04:24:54;;;;;;;;;1.00;0.00;;;;;13.09;100.00;102322.31;5034099;28;58129;-75
2023/02/19 04:27:20;;;;;;;;;0.00;0.00;;;;;13.10;100.00;102330.31;5042060;28;45532;-75
2023/02/19 04:29:45;;;;;;;;;0.00;0.00;;;;;13.13;100.00;102347.16;5021799;28;49193;-76
2023/02/19 04:32:11;;;;;;;;;3.00;0.00;;;;;13.10;100.00;102340.94;5046557;28;63962;-77
2023/02/19 04:34:37;;;;;;;;;0.00;0.00;;;;;13.09;100.00;102332.91;5030060;28;45543;-76
2023/02/19 04:37:02;;;;;;;;;0.00;0.00;;;;;13.10;100.00;102348.88;5054133;28;45937;-77
2023/02/19 04:39:28;;;;;;;;;0.00;0.00;;;;;13.14;100.00;102344.53;5028022;28;45549;-76
2023/02/19 04:41:53;;;;;;;;;0.00;0.00;;;;;13.14;100.00;102333.03;5041607;28;64798;-75
2023/02/19 04:44:19;;;;;;;;;0.00;0.00;;;;;13.15;100.00;102335.72;5048574;28;45376;-76
2023/02/19 04:46:44;;;;;;;;;1.00;0.00;;;;;13.16;100.00;102341.94;5043347;28;45520;-76
2023/02/19 04:49:09;;;;;;;;;0.00;0.00;;;;;13.13;100.00;102334.78;5047515;28;49168;-76
2023/02/19 04:51:35;;;;;;;;;1.00;0.00;;;;;13.11;100.00;102337.41;5027494;28;56800;-76
2023/02/19 04:54:00;;;;;;;;;1.00;0.00;;;;;13.06;100.00;102344.38;5038477;28;58781;-75
2023/02/19 04:56:26;;;;;;;;;1.33;0.33;;;;;13.13;100.00;102344.50;5032734;28;45362;-76
2023/02/19 04:58:51;;;;;;;;;0.33;0.00;;;;;13.14;100.00;102348.94;5039068;28;45389;-75
2023/02/19 05:01:16;;;;;;;;;1.67;0.00;;;;;13.15;100.00;102361.34;5046220;28;60287;-76
2023/02/19 05:03:43;;;;;;;;;0.00;0.00;;;;;13.16;100.00;102357.84;5028046;28;59070;-76
2023/02/19 05:06:10;;;;;;;;;0.00;0.00;;;;;13.15;100.00;102367.53;5023707;28;45461;-75
2023/02/19 05:08:36;;;;;;;;;1.00;0.00;;;;;13.16;100.00;102379.97;5043107;28;47302;-77
2023/02/19 05:11:03;;;;;;;;;0.00;0.00;;;;;13.17;100.00;102370.25;5048056;28;46611;-76
2023/02/19 05:13:29;;;;;;;;;0.00;0.00;;;;;13.20;100.00;102380.91;5037278;28;45406;-76
2023/02/19 05:16:03;;;;;;;;;0.00;0.00;;;;;13.20;100.00;102380.91;5020613;28;45528;-77
2023/02/19 05:18:30;;;;;;;;;0.00;0.00;;;;;13.22;100.00;102377.50;5027986;28;45445;-76
2023/02/19 05:20:57;;;;;;;;;0.00;0.00;;;;;13.24;100.00;102380.19;5021792;28;45727;-76
2023/02/19 05:23:22;;;;;;;;;1.00;0.00;;;;;13.22;100.00;102384.56;5031306;28;45349;-76
2023/02/19 05:25:48;;;;;;;;;1.00;0.00;;;;;13.24;100.00;102388.13;5037067;28;51210;-76
2023/02/19 05:28:16;;;;;;;;;1.33;0.00;;;;;13.25;100.00;102392.56;5015435;28;54028;-76
2023/02/19 05:30:51;;;;;;;;;1.33;0.00;;;;;13.25;100.00;102393.47;5018831;28;47427;-76
2023/02/19 05:33:19;;;;;;;;;0.00;0.00;;;;;13.22;100.00;102390.75;5031309;28;45562;-75
2023/02/19 05:35:50;;;;;;;;;0.33;0.00;;;;;13.22;100.00;102390.75;5020894;28;45517;-77
2023/02/19 05:38:16;;;;;;;;;0.00;0.00;;;;;13.24;100.00;102398.75;5022887;28;45389;-75
2023/02/19 05:40:41;;;;;;;;;0.00;0.00;;;;;13.19;100.00;102398.59;5028584;28;45700;-75
2023/02/19 05:43:07;;;;;;;;;0.00;0.00;;;;;13.19;100.00;102398.59;5043331;28;45219;-77
2023/02/19 05:45:33;;;;;;;;;0.33;0.00;;;;;13.20;100.00;102402.13;5022281;28;45299;-77
2023/02/19 05:47:59;;;;;;;;;0.67;0.67;;;;;13.18;100.00;102404.75;5048523;28;45739;-76
2023/02/19 05:50:24;;;;;;;;;2.00;0.00;;;;;13.14;100.00;102399.34;5040076;28;51233;-77
2023/02/19 05:52:50;;;;;;;;;1.00;0.00;;;;;13.20;100.00;102416.28;5033963;28;45390;-76
2023/02/19 05:55:15;;;;;;;;;2.00;0.00;;;;;13.22;100.00;102421.69;5019516;28;56857;-76
2023/02/19 05:57:42;;;;;;;;;0.67;0.00;;;;;13.22;100.00;102419.94;5021822;28;45264;-76
2023/02/19 06:00:13;;;;;;;;;1.00;0.00;;;;;13.24;100.00;102423.50;5021845;28;47137;-76
2023/02/19 06:02:38;;;;;;;;;0.67;0.00;;;;;13.23;100.00;102419.06;5025303;28;45604;-76
2023/02/19 06:05:04;;;;;;;;;1.33;0.00;;;;;13.24;100.00;102410.25;5043971;28;45561;-78
2023/02/19 06:07:30;;;;;;;;;0.00;0.00;;;;;13.24;100.00;102417.31;5035148;28;45654;-76
2023/02/19 06:09:56;;;;;;;;;0.67;0.00;;;;;13.21;100.00;102419.84;5043546;28;46407;-77
2023/02/19 06:12:21;;;;;;;;;2.00;0.67;;;;;13.19;100.00;102418.91;5023142;28;62222;-76
2023/02/19 06:14:47;;;;;;;;;2.00;0.00;;;;;13.18;100.00;102411.81;5025064;28;45458;-76
2023/02/19 06:17:12;;;;;;;;;1.00;1.00;;;;;13.19;100.00;102418.91;5028133;28;45676;-77
2023/02/19 06:19:38;;;;;;;;;1.33;0.00;;;;;13.17;100.00;102408.28;5044531;28;45903;-75
2023/02/19 06:22:03;;;;;;;;;1.33;1.00;;;;;13.16;100.00;102410.91;5021045;28;45509;-76
2023/02/19 06:24:29;;;;;;;;;0.00;0.00;;;;;13.16;100.00;102410.91;5023040;28;45952;-77
2023/02/19 06:26:54;;;;;;;;;0.67;0.67;;;;;13.16;100.00;102422.41;5040334;28;45555;-77
2023/02/19 06:29:20;;;;;;;;;1.00;1.00;;;;;13.16;100.00;102419.75;5026488;28;45276;-76
2023/02/19 06:31:45;;;;;;;;;3.33;1.00;;;;;13.18;100.00;102427.75;5035892;28;58597;-76
2023/02/19 06:34:10;;;;;;;;;1.00;1.00;;;;;13.22;100.00;102432.31;5048871;28;45249;-76
2023/02/19 06:36:36;;;;;;;;;0.00;0.00;;;;;13.25;100.00;102437.69;5018871;28;53888;-76
2023/02/19 06:39:03;;;;;;;;;1.33;0.00;;;;;13.23;100.00;102424.38;5043670;28;46722;-75
2023/02/19 06:41:28;;;;;;;;;1.00;1.00;;;;;13.22;100.00;102433.19;5021586;28;45446;-75
2023/02/19 06:43:56;;;;;;;;;3.00;0.00;;;;;13.18;100.00;102430.41;5037579;28;50152;-75
2023/02/19 06:46:21;;;;;;;;;2.67;1.00;;;;;13.19;100.00;102434.84;5045674;28;45644;-76
2023/02/19 06:48:46;;;;;;;;;2.00;2.00;;;;;13.22;100.00;102445.56;5011832;28;58207;-75
2023/02/19 06:51:22;;;;;;;;;1.00;1.00;;;;;13.24;100.00;102443.84;5035987;28;57523;-76
2023/02/19 06:53:47;;;;;;;;;2.00;1.33;;;;;13.26;100.00;102443.03;5026986;28;45393;-75
2023/02/19 06:56:22;;;;;;;;;2.33;0.67;;;;;13.27;100.00;102457.19;5021115;28;45506;-76
2023/02/19 06:58:47;;;;;;;;;3.00;1.00;;;;;13.24;100.00;102447.38;5043908;28;46419;-76
2023/02/19 07:01:13;;;;;;;;;2.67;1.33;;;;;13.25;100.00;102461.56;5036686;28;45323;-75
2023/02/19 07:03:38;;;;;;;;;1.00;1.00;;;;;13.20;100.00;102456.09;5042057;28;52135;-75
2023/02/19 07:06:03;;;;;;;;;1.33;1.00;;;;;13.15;100.00;102456.81;5035912;28;53953;-74
2023/02/19 07:08:29;;;;;;;;;1.00;1.00;;;;;13.18;100.00;102467.53;5045642;28;45942;-75
2023/02/19 07:10:56;;;;;;;;;1.00;1.00;;;;;13.17;100.00;102492.25;5039551;28;45260;-74
2023/02/19 07:13:22;;;;;;;;;2.67;1.00;;;;;13.09;100.00;102463.75;5027820;28;45523;-75
2023/02/19 07:15:47;;;;;;;;;1.33;1.33;;;;;13.13;100.00;102477.13;5034408;28;45565;-75
2023/02/19 07:18:13;;;;;;;;;2.33;1.00;;;;;13.14;100.00;102477.16;5047887;28;61950;-76
2023/02/19 07:20:38;;;;;;;;;3.00;1.67;;;;;13.16;100.00;102479.88;5033462;28;54561;-75
2023/02/19 07:23:03;;;;;;;;;2.00;2.00;;;;;13.16;100.00;102472.81;5043799;28;46199;-75
2023/02/19 07:25:29;;;;;;;;;3.00;2.00;;;;;13.20;100.00;102481.72;5017480;28;50916;-75
2023/02/19 07:27:54;;;;;;;;;4.00;2.67;;;;;13.21;100.00;102494.09;5047871;28;57554;-75
2023/02/19 07:30:19;;;;;;;;;3.33;2.00;;;;;13.22;100.00;102502.16;5037922;28;45487;-75
2023/02/19 07:32:45;;;;;;;;;2.00;2.00;;;;;13.17;100.00;102494.91;5051662;28;52319;-75
2023/02/19 07:35:10;;;;;;;;;3.67;2.67;;;;;13.18;100.00;102496.69;5028021;28;46600;-76
2023/02/19 07:37:36;;;;;;;;;1.00;1.00;;;;;13.20;100.00;102502.94;5033744;28;45671;-75
2023/02/19 07:40:01;;;;;;;;;2.00;1.00;;;;;13.20;100.00;102510.88;5033303;28;59714;-75
2023/02/19 07:42:27;;;;;;;;;3.67;1.67;;;;;13.19;100.00;102511.75;5034410;28;45687;-75
2023/02/19 07:44:52;;;;;;;;;1.00;1.00;;;;;13.18;100.00;102500.25;5034031;28;45571;-76
2023/02/19 07:47:18;;;;;;;;;3.00;1.67;;;;;13.16;100.00;102501.09;5026209;28;46385;-76
2023/02/19 07:49:43;;;;;;;;;3.67;1.67;;;;;13.17;100.00;102506.41;5043902;28;56717;-75
2023/02/19 07:52:08;;;;;;;;;4.33;2.67;;;;;13.16;100.00;102511.69;5043239;28;54161;-75
2023/02/19 07:54:34;;;;;;;;;2.67;2.00;;;;;13.18;100.00;102512.63;5045026;28;45519;-78
2023/02/19 07:56:59;;;;;;;;;1.00;1.00;;;;;13.18;100.00;102515.28;5043855;22;45878;-76
2023/02/19 07:59:24;;;;;;;;;4.67;2.00;;;;;13.21;100.00;102517.97;5047456;22;45194;-76
2023/02/19 08:04:34;;;;;;;;;5.67;2.00;;;;;13.29;100.00;102535.06;5186732;22;45480;-76
2023/02/19 08:07:00;;;;;;;;;4.33;1.00;;;;;13.30;100.00;102528.88;5037767;28;46473;-77
2023/02/19 08:09:25;;;;;;;;;4.67;2.00;;;;;13.29;100.00;102529.75;5003272;28;45474;-75
2023/02/19 08:14:34;;;;;;;;;3.33;2.00;;;;;13.35;100.00;102535.22;5037013;28;45425;-75
2023/02/19 08:17:00;;;;;;;;;4.00;2.00;;;;;13.36;100.00;102537.00;5015471;28;45706;-75
2023/02/19 08:19:25;;;;;;;;;2.67;2.67;;;;;13.38;100.00;102543.28;5018110;28;45528;-75
2023/02/19 08:21:52;;;;;;;;;10.67;3.33;;;;;13.39;100.00;102537.09;5016174;28;45828;-75
2023/02/19 08:24:17;;;;;;;;;3.00;2.00;;;;;13.44;100.00;102539.88;5020572;28;45636;-75
2023/02/19 08:26:42;;;;;;;;;4.00;3.00;;;;;13.47;100.00;102532.88;5006158;28;57864;-79
2023/02/19 08:29:08;;;;;;;;;3.00;2.00;;;;;13.51;100.00;102552.44;5008693;28;59656;-74
2023/02/19 08:31:34;;;;;;;;;1.67;1.67;;;;;13.51;100.00;102552.44;5026100;28;47198;-75
2023/02/19 08:33:59;;;;;;;;;3.00;1.00;;;;;13.54;100.00;102548.13;5015021;28;45850;-75
2023/02/19 08:36:25;;;;;;;;;3.33;2.33;;;;;13.54;100.00;102558.75;5013528;28;55780;-75
2023/02/19 08:38:50;;;;;;;;;3.00;2.00;;;;;13.51;100.00;102541.84;5008974;28;45502;-76
2023/02/19 08:41:15;;;;;;;;;2.67;1.67;;;;;13.53;100.00;102545.41;5042980;28;49734;-74
2023/02/19 08:43:41;;;;;;;;;2.33;1.00;;;;;13.55;100.00;102535.75;5018917;28;45457;-76
2023/02/19 08:46:08;;;;;;;;;2.00;2.00;;;;;13.57;100.00;102544.63;5014524;28;46501;-77
2023/02/19 08:48:34;;;;;;;;;1.00;1.00;;;;;13.61;100.00;102539.47;5009036;28;46103;-76
2023/02/19 08:51:02;;;;;;;;;1.00;1.00;;;;;13.64;100.00;102533.34;5016636;28;45679;-74
2023/02/19 08:53:29;;;;;;;;;2.00;2.00;;;;;13.68;100.00;102534.31;5011095;28;45636;-74
2023/02/19 08:55:54;;;;;;;;;2.00;0.00;;;;;13.70;100.00;102540.56;5016428;28;45591;-75
2023/02/19 08:58:20;;;;;;;;;1.67;0.67;;;;;13.71;100.00;102532.63;5012443;28;56168;-74
2023/02/19 09:00:45;;;;;;;;;2.00;1.00;;;;;13.76;100.00;102540.72;5017214;28;45466;-75
2023/02/19 09:03:11;;;;;;;;;1.33;0.67;;;;;13.81;100.00;102531.13;5006112;28;45505;-75
2023/02/19 09:05:36;;;;;;;;;3.33;1.33;;;;;13.87;100.00;102539.22;5018242;28;46036;-76
2023/02/19 09:08:02;;;;;;;;;0.00;0.00;;;;;13.94;100.00;102537.59;4996200;28;46528;-75
2023/02/19 09:10:27;;;;;;;;;2.00;1.00;;;;;13.94;100.00;102541.16;5034993;28;45483;-75
2023/02/19 09:12:53;;;;;;;;;3.00;1.00;;;;;13.98;100.00;102551.00;5014534;28;48649;-77
2023/02/19 09:15:18;;;;;;;;;2.00;1.00;;;;;13.97;100.00;102564.25;5031084;28;45915;-73
2023/02/19 09:17:43;;;;;;;;;0.00;0.00;;;;;13.97;100.00;102570.47;5012807;28;59495;-74
2023/02/19 09:20:09;;;;;;;;;1.33;1.00;;;;;13.94;100.00;102556.19;5036427;28;54216;-74
2023/02/19 09:22:35;;;;;;;;;1.33;0.33;;;;;13.87;100.00;102558.72;5035016;28;45501;-74
2023/02/19 09:25:00;;;;;;;;;3.33;1.00;;;;;13.89;100.00;102566.69;5034901;28;46795;-77
2023/02/19 09:27:26;;;;;;;;;1.00;1.00;;;;;13.94;100.00;102565.06;5035783;28;52833;-74
2023/02/19 09:29:53;;;;;;;;;3.00;1.00;;;;;13.96;100.00;102557.16;5036178;28;45468;-74
2023/02/19 09:32:19;;;;;;;;;2.00;0.00;;;;;14.02;100.00;102557.31;5035131;28;45393;-74
2023/02/19 09:34:44;;;;;;;;;2.00;1.00;;;;;14.07;100.00;102551.25;5018269;28;47513;-74
2023/02/19 09:37:10;;;;;;;;;1.00;1.00;;;;;14.13;100.00;102563.75;5035884;28;45311;-75
2023/02/19 09:39:35;;;;;;;;;1.00;1.00;;;;;14.09;100.00;102552.16;5015641;28;47608;-76
2023/02/19 09:42:26;;;;;;;;;1.33;1.33;;;;;14.09;100.00;102568.09;5036048;28;45691;-78
2023/02/19 09:44:54;;;;;;;;;2.00;2.00;;;;;14.05;100.00;102566.22;5030063;28;46019;-76
2023/02/19 09:47:22;;;;;;;;;4.33;3.00;;;;;13.98;100.00;102553.66;5022534;28;45532;-74
2023/02/19 09:49:59;;;;;;;;;2.67;2.33;;;;;14.09;100.00;102576.06;5036076;28;45453;-74
2023/02/19 09:52:37;;;;;;;;;1.33;1.33;;;;;14.12;100.00;102568.19;5018444;28;45633;-75
2023/02/19 09:55:15;;;;;;;;;1.67;1.67;;;;;14.08;100.00;102555.69;5011824;28;46813;-75
2023/02/19 09:57:42;;;;;;;;;1.00;1.00;;;;;14.16;100.00;102563.81;5036010;28;45372;-74
2023/02/19 10:00:11;;;;;;;;;2.00;2.00;;;;;14.25;100.00;102573.78;5018956;28;45480;-76
2023/02/19 10:02:37;;;;;;;;;2.00;2.00;;;;;14.33;100.00;102573.13;5036577;28;45474;-74
2023/02/19 10:05:08;;;;;;;;;3.67;1.00;;;;;14.40;100.00;102572.38;5036139;28;46110;-75
2023/02/19 10:07:39;;;;;;;;;3.67;1.00;;;;;14.46;100.00;102563.66;4997975;28;45450;-74
2023/02/19 10:10:13;;;;;;;;;4.00;2.67;;;;;14.53;100.00;102564.72;5017163;28;45564;-74
2023/02/19 10:12:44;;;;;;;;;2.00;1.00;;;;;14.56;100.00;102573.66;5040006;28;46466;-77
2023/02/19 10:15:28;;;;;;;;;2.67;1.00;;;;;14.60;100.00;102580.84;5013574;28;45653;-74
2023/02/19 10:17:54;;;;;;;;;3.67;2.00;;;;;14.62;100.00;102580.88;5021050;28;45414;-74
2023/02/19 10:20:23;;;;;;;;;3.00;1.33;;;;;14.67;100.00;102573.91;5035454;28;47398;-75
2023/02/19 10:22:52;;;;;;;;;4.00;2.67;;;;;14.77;100.00;102590.97;5018518;28;45504;-75
2023/02/19 10:25:17;;;;;;;;;2.67;2.00;;;;;14.85;100.00;102586.69;5011197;28;46330;-75
2023/02/19 10:27:43;;;;;;;;;2.67;2.00;;;;;14.90;100.00;102587.69;4999214;28;57649;-75
2023/02/19 10:30:19;;;;;;;;;2.00;2.00;;;;;14.91;100.00;102589.47;5017531;28;47668;-74
2023/02/19 10:33:02;;;;;;;;;1.00;1.00;;;;;14.89;100.00;102593.88;5017715;28;45493;-74
2023/02/19 10:35:29;;;;;;;;;3.00;1.00;;;;;14.85;100.00;102595.56;5035064;28;48105;-77
2023/02/19 10:37:54;;;;;;;;;6.33;1.67;;;;;14.89;100.00;102601.84;5016638;28;45443;-75
2023/02/19 10:40:27;;;;;;;;;6.00;2.67;;;;;14.98;100.00;102610.03;5017553;28;45371;-76
2023/02/19 10:42:57;;;;;;;;;1.00;1.00;;;;;15.04;100.00;102626.13;5035620;28;46526;-76
2023/02/19 10:45:27;;;;;;;;;3.00;3.00;;;;;15.08;100.00;102620.03;5015358;28;46032;-76
2023/02/19 10:47:53;;;;;;;;;3.00;1.67;;;;;15.10;100.00;102604.97;5000357;28;45734;-74
2023/02/19 10:50:31;;;;;;;;;3.00;1.00;;;;;15.14;100.00;102628.13;5018501;28;45576;-74
2023/02/19 10:52:58;;;;;;;;;5.00;3.33;;;;;15.10;100.00;102644.88;5016711;28;45584;-76
2023/02/19 10:55:29;;;;;;;;;3.33;3.33;;;;;15.11;100.00;102654.66;5035872;28;46589;-76
2023/02/19 10:57:56;;;;;;;;;2.33;2.33;;;;;15.09;100.00;102645.75;5016492;28;46343;-77
2023/02/19 11:00:25;;;;;;;;;5.33;2.67;;;;;15.08;100.00;102654.59;5017560;28;46582;-78
2023/02/19 11:03:20;;;;;;;;;1.00;1.00;;;;;15.15;100.00;102659.19;5019056;28;45547;-74
2023/02/19 11:05:57;;;;;;;;;2.33;2.33;;;;;15.16;100.00;102646.78;5037674;28;48406;-74
2023/02/19 11:08:22;;;;;;;;;5.00;3.00;;;;;15.08;100.00;102648.38;5020510;28;45656;-74
2023/02/19 11:10:48;;;;;;;;;5.00;1.33;;;;;15.12;100.00;102634.25;5028227;28;45538;-74
2023/02/19 11:13:19;;;;;;;;;2.00;2.00;;;;;15.22;100.00;102643.34;5036676;28;45481;-75
2023/02/19 11:15:50;;;;;;;;;5.67;3.00;;;;;15.29;100.00;102631.97;5017069;28;46713;-75
2023/02/19 11:18:30;;;;;;;;;2.33;2.00;;;;;15.39;100.00;102634.84;5036094;28;45428;-75
2023/02/19 11:20:57;;;;;;;;;2.67;2.33;;;;;15.54;100.00;102638.66;5021002;28;45451;-75
2023/02/19 11:23:49;;;;;;;;;2.00;2.00;;;;;15.72;100.00;102647.06;5021119;28;45354;-76
2023/02/19 11:26:25;;;;;;;;;5.00;3.00;;;;;15.79;100.00;102640.06;5036578;28;51547;-74
2023/02/19 11:29:12;;;;;;;;;6.33;3.00;;;;;15.80;100.00;102636.53;5020844;28;45510;-75
2023/02/19 11:31:37;;;;;;;;;3.00;3.00;;;;;15.77;100.00;102644.47;5038670;28;45460;-76
2023/02/19 11:34:05;;;;;;;;;3.00;1.33;;;;;15.74;100.00;102652.41;5020924;28;45485;-74
2023/02/19 11:36:33;;;;;;;;;2.00;1.00;;;;;15.68;100.00;102646.09;5020136;28;46092;-75
2023/02/19 11:39:14;;;;;;;;;3.33;2.00;;;;;15.69;100.00;102655.88;5016261;28;45773;-75
2023/02/19 11:41:48;;;;;;;;;7.00;3.00;;;;;15.74;100.00;102661.28;5038623;28;45276;-75
2023/02/19 11:44:29;;;;;;;;;5.33;2.67;;;;;15.83;100.00;102648.16;5038470;28;45346;-75
2023/02/19 11:47:21;;;;;;;;;2.33;2.33;;;;;15.88;100.00;102651.78;5038395;28;46675;-74
2023/02/19 11:49:57;;;;;;;;;3.00;3.00;;;;;15.90;100.00;102655.38;5017733;28;45425;-74
2023/02/19 11:52:31;;;;;;;;;2.00;2.00;;;;;15.89;100.00;102663.34;5038578;28;45340;-74